sensor_id;sensor_type;location;lat;lon;timestamp;P1;durP1;ratioP1;P2;durP2;ratioP2
5821;SDS011;2937;48.562;8.022;2022-07-18T00:00:32;7.87;;;4.40;;
5821;SDS011;2937;48.562;8.022;2022-07-18T00:05:24;7.00;;;4.20;;
5821;SDS011;2937;48.562;8.022;2022-07-18T00:10:17;5.60;;;3.87;;
5821;SDS011;2937;48.562;8.022;2022-07-18T00:15:11;5.30;;;4.30;;
5821;SDS011;2937;48.562;8.022;2022-07-18T00:20:05;7.10;;;4.70;;
5821;SDS011;2937;48.562;8.022;2022-07-18T00:24:58;5.00;;;4.10;;
5821;SDS011;2937;48.562;8.022;2022-07-18T00:29:50;5.43;;;4.50;;
5821;SDS011;2937;48.562;8.022;2022-07-18T00:34:44;7.03;;;4.67;;
5821;SDS011;2937;48.562;8.022;2022-07-18T00:39:37;5.93;;;4.40;;
5821;SDS011;2937;48.562;8.022;2022-07-18T00:44:29;5.40;;;4.50;;
5821;SDS011;2937;48.562;8.022;2022-07-18T00:49:22;5.47;;;4.47;;
5821;SDS011;2937;48.562;8.022;2022-07-18T00:54:16;5.80;;;4.30;;
5821;SDS011;2937;48.562;8.022;2022-07-18T00:59:09;4.97;;;4.10;;
5821;SDS011;2937;48.562;8.022;2022-07-18T01:04:02;5.30;;;4.47;;
5821;SDS011;2937;48.562;8.022;2022-07-18T01:08:54;8.00;;;4.53;;
5821;SDS011;2937;48.562;8.022;2022-07-18T01:13:50;8.13;;;4.83;;
5821;SDS011;2937;48.562;8.022;2022-07-18T01:18:43;6.20;;;4.60;;
5821;SDS011;2937;48.562;8.022;2022-07-18T01:23:37;6.00;;;4.33;;
5821;SDS011;2937;48.562;8.022;2022-07-18T01:28:30;9.27;;;5.00;;
5821;SDS011;2937;48.562;8.022;2022-07-18T01:33:23;6.07;;;4.93;;
5821;SDS011;2937;48.562;8.022;2022-07-18T01:38:16;5.73;;;5.10;;
5821;SDS011;2937;48.562;8.022;2022-07-18T01:43:11;5.30;;;4.60;;
5821;SDS011;2937;48.562;8.022;2022-07-18T01:48:03;6.70;;;4.70;;
5821;SDS011;2937;48.562;8.022;2022-07-18T01:52:56;6.20;;;4.60;;
5821;SDS011;2937;48.562;8.022;2022-07-18T01:57:49;6.63;;;4.70;;
5821;SDS011;2937;48.562;8.022;2022-07-18T02:02:42;6.40;;;4.40;;
5821;SDS011;2937;48.562;8.022;2022-07-18T02:07:36;10.80;;;5.10;;
5821;SDS011;2937;48.562;8.022;2022-07-18T02:12:28;6.40;;;4.57;;
5821;SDS011;2937;48.562;8.022;2022-07-18T02:17:21;5.87;;;4.43;;
5821;SDS011;2937;48.562;8.022;2022-07-18T02:22:15;6.60;;;4.50;;
5821;SDS011;2937;48.562;8.022;2022-07-18T02:27:07;7.47;;;4.70;;
5821;SDS011;2937;48.562;8.022;2022-07-18T02:32:00;5.20;;;4.43;;
5821;SDS011;2937;48.562;8.022;2022-07-18T02:36:53;6.30;;;4.67;;
5821;SDS011;2937;48.562;8.022;2022-07-18T02:41:47;5.77;;;4.77;;
5821;SDS011;2937;48.562;8.022;2022-07-18T02:46:40;9.13;;;4.93;;
5821;SDS011;2937;48.562;8.022;2022-07-18T02:51:32;5.90;;;4.73;;
5821;SDS011;2937;48.562;8.022;2022-07-18T02:56:25;5.37;;;4.40;;
5821;SDS011;2937;48.562;8.022;2022-07-18T03:01:19;7.83;;;4.70;;
5821;SDS011;2937;48.562;8.022;2022-07-18T03:06:12;6.13;;;5.00;;
5821;SDS011;2937;48.562;8.022;2022-07-18T03:11:04;6.27;;;4.93;;
5821;SDS011;2937;48.562;8.022;2022-07-18T03:15:57;5.90;;;5.00;;
5821;SDS011;2937;48.562;8.022;2022-07-18T03:20:51;6.63;;;4.50;;
5821;SDS011;2937;48.562;8.022;2022-07-18T03:25:43;5.77;;;4.80;;
5821;SDS011;2937;48.562;8.022;2022-07-18T03:30:36;5.83;;;5.03;;
5821;SDS011;2937;48.562;8.022;2022-07-18T03:35:28;6.77;;;4.80;;
5821;SDS011;2937;48.562;8.022;2022-07-18T03:40:22;6.70;;;4.90;;
5821;SDS011;2937;48.562;8.022;2022-07-18T03:45:15;7.00;;;5.37;;
5821;SDS011;2937;48.562;8.022;2022-07-18T03:50:08;6.80;;;5.30;;
5821;SDS011;2937;48.562;8.022;2022-07-18T03:55:01;6.80;;;5.37;;
5821;SDS011;2937;48.562;8.022;2022-07-18T03:59:55;6.60;;;4.97;;
5821;SDS011;2937;48.562;8.022;2022-07-18T04:04:48;8.90;;;5.20;;
5821;SDS011;2937;48.562;8.022;2022-07-18T04:09:40;6.17;;;4.80;;
5821;SDS011;2937;48.562;8.022;2022-07-18T04:14:33;5.13;;;4.57;;
5821;SDS011;2937;48.562;8.022;2022-07-18T04:19:27;7.10;;;4.57;;
5821;SDS011;2937;48.562;8.022;2022-07-18T04:24:20;5.10;;;4.20;;
5821;SDS011;2937;48.562;8.022;2022-07-18T04:29:12;6.50;;;4.50;;
5821;SDS011;2937;48.562;8.022;2022-07-18T04:34:05;7.07;;;4.40;;
5821;SDS011;2937;48.562;8.022;2022-07-18T04:38:59;5.70;;;4.37;;
5821;SDS011;2937;48.562;8.022;2022-07-18T04:43:51;6.83;;;5.30;;
5821;SDS011;2937;48.562;8.022;2022-07-18T04:48:44;5.83;;;4.17;;
5821;SDS011;2937;48.562;8.022;2022-07-18T04:53:36;9.33;;;4.70;;
5821;SDS011;2937;48.562;8.022;2022-07-18T04:58:30;22.30;;;5.70;;
5821;SDS011;2937;48.562;8.022;2022-07-18T05:03:23;16.10;;;5.80;;
5821;SDS011;2937;48.562;8.022;2022-07-18T05:08:16;14.00;;;6.40;;
5821;SDS011;2937;48.562;8.022;2022-07-18T05:13:09;10.17;;;5.23;;
5821;SDS011;2937;48.562;8.022;2022-07-18T05:18:03;15.13;;;6.20;;
5821;SDS011;2937;48.562;8.022;2022-07-18T05:22:56;9.30;;;6.00;;
5821;SDS011;2937;48.562;8.022;2022-07-18T05:27:49;8.43;;;5.50;;
5821;SDS011;2937;48.562;8.022;2022-07-18T05:32:42;10.50;;;5.20;;
5821;SDS011;2937;48.562;8.022;2022-07-18T05:37:36;9.90;;;5.77;;
5821;SDS011;2937;48.562;8.022;2022-07-18T05:42:30;8.63;;;5.10;;
5821;SDS011;2937;48.562;8.022;2022-07-18T05:47:42;11.20;;;5.90;;
5821;SDS011;2937;48.562;8.022;2022-07-18T05:52:36;8.33;;;4.90;;
5821;SDS011;2937;48.562;8.022;2022-07-18T05:57:29;8.20;;;4.67;;
5821;SDS011;2937;48.562;8.022;2022-07-18T06:02:21;6.90;;;4.00;;
5821;SDS011;2937;48.562;8.022;2022-07-18T06:07:14;7.63;;;4.60;;
5821;SDS011;2937;48.562;8.022;2022-07-18T06:12:08;8.40;;;4.80;;
5821;SDS011;2937;48.562;8.022;2022-07-18T06:17:00;9.43;;;4.73;;
5821;SDS011;2937;48.562;8.022;2022-07-18T06:21:53;5.60;;;4.20;;
5821;SDS011;2937;48.562;8.022;2022-07-18T06:26:46;5.50;;;3.80;;
5821;SDS011;2937;48.562;8.022;2022-07-18T06:31:39;8.93;;;4.40;;
5821;SDS011;2937;48.562;8.022;2022-07-18T06:36:32;9.43;;;4.50;;
5821;SDS011;2937;48.562;8.022;2022-07-18T06:41:25;7.13;;;4.60;;
5821;SDS011;2937;48.562;8.022;2022-07-18T06:46:17;6.77;;;4.80;;
5821;SDS011;2937;48.562;8.022;2022-07-18T06:51:12;7.93;;;4.67;;
5821;SDS011;2937;48.562;8.022;2022-07-18T06:56:05;6.37;;;4.53;;
5821;SDS011;2937;48.562;8.022;2022-07-18T07:00:57;7.40;;;5.03;;
5821;SDS011;2937;48.562;8.022;2022-07-18T07:05:50;14.63;;;4.50;;
5821;SDS011;2937;48.562;8.022;2022-07-18T07:10:44;7.03;;;4.43;;
5821;SDS011;2937;48.562;8.022;2022-07-18T07:15:37;8.20;;;4.40;;
5821;SDS011;2937;48.562;8.022;2022-07-18T07:20:31;7.60;;;4.67;;
5821;SDS011;2937;48.562;8.022;2022-07-18T07:25:25;10.33;;;4.57;;
5821;SDS011;2937;48.562;8.022;2022-07-18T07:30:20;11.20;;;4.63;;
5821;SDS011;2937;48.562;8.022;2022-07-18T07:35:13;7.23;;;4.80;;
5821;SDS011;2937;48.562;8.022;2022-07-18T07:40:06;5.43;;;4.40;;
5821;SDS011;2937;48.562;8.022;2022-07-18T07:44:58;9.27;;;4.60;;
5821;SDS011;2937;48.562;8.022;2022-07-18T07:49:52;8.10;;;4.40;;
5821;SDS011;2937;48.562;8.022;2022-07-18T07:54:45;7.93;;;4.10;;
5821;SDS011;2937;48.562;8.022;2022-07-18T07:59:37;10.40;;;4.60;;
5821;SDS011;2937;48.562;8.022;2022-07-18T08:04:30;7.17;;;4.60;;
5821;SDS011;2937;48.562;8.022;2022-07-18T08:09:24;11.63;;;4.77;;
5821;SDS011;2937;48.562;8.022;2022-07-18T08:14:16;9.93;;;4.60;;
5821;SDS011;2937;48.562;8.022;2022-07-18T08:19:09;9.07;;;4.30;;
5821;SDS011;2937;48.562;8.022;2022-07-18T08:24:02;8.87;;;4.57;;
5821;SDS011;2937;48.562;8.022;2022-07-18T08:28:57;10.60;;;4.00;;
5821;SDS011;2937;48.562;8.022;2022-07-18T08:33:49;5.43;;;4.00;;
5821;SDS011;2937;48.562;8.022;2022-07-18T08:38:42;5.70;;;3.73;;
5821;SDS011;2937;48.562;8.022;2022-07-18T08:43:34;4.10;;;3.67;;
5821;SDS011;2937;48.562;8.022;2022-07-18T08:48:28;5.97;;;3.90;;
5821;SDS011;2937;48.562;8.022;2022-07-18T08:53:21;6.70;;;3.53;;
5821;SDS011;2937;48.562;8.022;2022-07-18T08:58:14;6.37;;;3.63;;
5821;SDS011;2937;48.562;8.022;2022-07-18T09:03:30;3.93;;;3.03;;
5821;SDS011;2937;48.562;8.022;2022-07-18T09:08:23;6.10;;;3.87;;
5821;SDS011;2937;48.562;8.022;2022-07-18T09:13:15;6.17;;;3.73;;
5821;SDS011;2937;48.562;8.022;2022-07-18T09:18:08;5.07;;;3.70;;
5821;SDS011;2937;48.562;8.022;2022-07-18T09:23:22;5.87;;;3.77;;
5821;SDS011;2937;48.562;8.022;2022-07-18T09:28:19;4.50;;;3.60;;
5821;SDS011;2937;48.562;8.022;2022-07-18T09:33:11;5.90;;;4.00;;
5821;SDS011;2937;48.562;8.022;2022-07-18T09:38:04;5.80;;;3.57;;
5821;SDS011;2937;48.562;8.022;2022-07-18T09:43:01;10.50;;;3.60;;
5821;SDS011;2937;48.562;8.022;2022-07-18T09:47:54;5.40;;;3.67;;
5821;SDS011;2937;48.562;8.022;2022-07-18T09:52:55;9.30;;;3.70;;
5821;SDS011;2937;48.562;8.022;2022-07-18T09:58:09;6.30;;;3.90;;
5821;SDS011;2937;48.562;8.022;2022-07-18T10:03:04;7.90;;;3.83;;
5821;SDS011;2937;48.562;8.022;2022-07-18T10:07:57;8.13;;;4.10;;
5821;SDS011;2937;48.562;8.022;2022-07-18T10:12:51;6.87;;;3.60;;
5821;SDS011;2937;48.562;8.022;2022-07-18T10:17:46;5.40;;;3.73;;
5821;SDS011;2937;48.562;8.022;2022-07-18T10:22:39;4.33;;;3.50;;
5821;SDS011;2937;48.562;8.022;2022-07-18T10:27:46;7.93;;;3.80;;
5821;SDS011;2937;48.562;8.022;2022-07-18T10:32:39;5.10;;;3.50;;
5821;SDS011;2937;48.562;8.022;2022-07-18T10:37:33;10.40;;;4.20;;
5821;SDS011;2937;48.562;8.022;2022-07-18T10:42:26;7.37;;;3.53;;
5821;SDS011;2937;48.562;8.022;2022-07-18T10:47:27;5.50;;;3.50;;
5821;SDS011;2937;48.562;8.022;2022-07-18T10:57:30;4.33;;;3.43;;
5821;SDS011;2937;48.562;8.022;2022-07-18T11:02:29;8.93;;;4.10;;
5821;SDS011;2937;48.562;8.022;2022-07-18T11:07:22;4.53;;;3.73;;
5821;SDS011;2937;48.562;8.022;2022-07-18T11:12:22;8.77;;;3.40;;
5821;SDS011;2937;48.562;8.022;2022-07-18T11:17:16;3.60;;;3.20;;
5821;SDS011;2937;48.562;8.022;2022-07-18T11:22:28;6.90;;;3.20;;
5821;SDS011;2937;48.562;8.022;2022-07-18T11:27:21;4.30;;;3.20;;
5821;SDS011;2937;48.562;8.022;2022-07-18T11:32:21;5.87;;;3.20;;
5821;SDS011;2937;48.562;8.022;2022-07-18T11:37:13;11.60;;;3.60;;
5821;SDS011;2937;48.562;8.022;2022-07-18T11:42:08;4.90;;;3.47;;
5821;SDS011;2937;48.562;8.022;2022-07-18T11:47:05;7.73;;;3.40;;
5821;SDS011;2937;48.562;8.022;2022-07-18T11:51:59;6.20;;;2.97;;
5821;SDS011;2937;48.562;8.022;2022-07-18T11:56:53;7.43;;;3.07;;
5821;SDS011;2937;48.562;8.022;2022-07-18T12:01:45;4.20;;;3.40;;
5821;SDS011;2937;48.562;8.022;2022-07-18T12:06:44;4.37;;;3.40;;
5821;SDS011;2937;48.562;8.022;2022-07-18T12:11:38;4.63;;;3.10;;
5821;SDS011;2937;48.562;8.022;2022-07-18T12:16:56;4.30;;;3.30;;
5821;SDS011;2937;48.562;8.022;2022-07-18T12:21:49;6.50;;;3.47;;
5821;SDS011;2937;48.562;8.022;2022-07-18T12:26:44;4.23;;;3.10;;
5821;SDS011;2937;48.562;8.022;2022-07-18T12:31:39;4.20;;;2.90;;
5821;SDS011;2937;48.562;8.022;2022-07-18T12:36:32;4.23;;;3.20;;
5821;SDS011;2937;48.562;8.022;2022-07-18T12:41:30;6.77;;;3.30;;
5821;SDS011;2937;48.562;8.022;2022-07-18T12:46:25;4.63;;;3.43;;
5821;SDS011;2937;48.562;8.022;2022-07-18T12:51:17;8.70;;;3.40;;
5821;SDS011;2937;48.562;8.022;2022-07-18T12:56:10;4.03;;;3.63;;
5821;SDS011;2937;48.562;8.022;2022-07-18T13:01:03;6.80;;;3.20;;
5821;SDS011;2937;48.562;8.022;2022-07-18T13:05:59;3.73;;;3.33;;
5821;SDS011;2937;48.562;8.022;2022-07-18T13:10:51;4.03;;;3.67;;
5821;SDS011;2937;48.562;8.022;2022-07-18T13:15:44;7.07;;;3.60;;
5821;SDS011;2937;48.562;8.022;2022-07-18T13:20:36;4.23;;;3.60;;
5821;SDS011;2937;48.562;8.022;2022-07-18T13:25:30;4.90;;;3.43;;
5821;SDS011;2937;48.562;8.022;2022-07-18T13:30:24;6.40;;;3.83;;
5821;SDS011;2937;48.562;8.022;2022-07-18T13:35:17;4.77;;;3.60;;
5821;SDS011;2937;48.562;8.022;2022-07-18T13:40:10;7.60;;;3.67;;
5821;SDS011;2937;48.562;8.022;2022-07-18T13:45:06;6.63;;;3.70;;
5821;SDS011;2937;48.562;8.022;2022-07-18T13:49:58;6.03;;;3.47;;
5821;SDS011;2937;48.562;8.022;2022-07-18T13:54:51;4.40;;;3.87;;
5821;SDS011;2937;48.562;8.022;2022-07-18T13:59:45;5.93;;;3.70;;
5821;SDS011;2937;48.562;8.022;2022-07-18T14:04:39;4.00;;;3.70;;
5821;SDS011;2937;48.562;8.022;2022-07-18T14:09:52;4.43;;;3.80;;
5821;SDS011;2937;48.562;8.022;2022-07-18T14:14:45;5.93;;;3.90;;
5821;SDS011;2937;48.562;8.022;2022-07-18T14:19:37;6.90;;;4.10;;
5821;SDS011;2937;48.562;8.022;2022-07-18T14:24:31;4.17;;;3.77;;
5821;SDS011;2937;48.562;8.022;2022-07-18T14:29:24;12.27;;;4.13;;
5821;SDS011;2937;48.562;8.022;2022-07-18T14:34:16;8.80;;;3.77;;
5821;SDS011;2937;48.562;8.022;2022-07-18T14:39:09;6.50;;;3.60;;
5821;SDS011;2937;48.562;8.022;2022-07-18T14:44:03;7.00;;;4.30;;
5821;SDS011;2937;48.562;8.022;2022-07-18T14:48:56;6.13;;;3.97;;
5821;SDS011;2937;48.562;8.022;2022-07-18T14:53:49;6.40;;;4.17;;
5821;SDS011;2937;48.562;8.022;2022-07-18T14:58:41;5.17;;;4.00;;
5821;SDS011;2937;48.562;8.022;2022-07-18T15:03:38;7.33;;;4.30;;
5821;SDS011;2937;48.562;8.022;2022-07-18T15:08:50;11.30;;;3.73;;
5821;SDS011;2937;48.562;8.022;2022-07-18T15:13:43;6.97;;;3.83;;
5821;SDS011;2937;48.562;8.022;2022-07-18T15:18:36;7.40;;;3.83;;
5821;SDS011;2937;48.562;8.022;2022-07-18T15:23:29;7.90;;;4.13;;
5821;SDS011;2937;48.562;8.022;2022-07-18T15:28:22;6.13;;;4.17;;
5821;SDS011;2937;48.562;8.022;2022-07-18T15:33:15;8.00;;;3.80;;
5821;SDS011;2937;48.562;8.022;2022-07-18T15:38:08;6.10;;;4.00;;
5821;SDS011;2937;48.562;8.022;2022-07-18T15:43:02;7.03;;;3.90;;
5821;SDS011;2937;48.562;8.022;2022-07-18T15:47:54;7.83;;;3.70;;
5821;SDS011;2937;48.562;8.022;2022-07-18T15:52:47;6.03;;;3.87;;
5821;SDS011;2937;48.562;8.022;2022-07-18T15:57:40;8.00;;;3.70;;
5821;SDS011;2937;48.562;8.022;2022-07-18T16:02:34;4.67;;;3.90;;
5821;SDS011;2937;48.562;8.022;2022-07-18T16:07:27;8.73;;;3.90;;
5821;SDS011;2937;48.562;8.022;2022-07-18T16:12:20;6.70;;;3.80;;
5821;SDS011;2937;48.562;8.022;2022-07-18T16:17:12;4.90;;;3.60;;
5821;SDS011;2937;48.562;8.022;2022-07-18T16:22:06;7.50;;;3.97;;
5821;SDS011;2937;48.562;8.022;2022-07-18T16:26:59;4.90;;;3.60;;
5821;SDS011;2937;48.562;8.022;2022-07-18T16:31:51;8.53;;;3.50;;
5821;SDS011;2937;48.562;8.022;2022-07-18T16:36:44;4.00;;;3.60;;
5821;SDS011;2937;48.562;8.022;2022-07-18T16:41:38;7.13;;;3.40;;
5821;SDS011;2937;48.562;8.022;2022-07-18T16:46:31;6.50;;;3.67;;
5821;SDS011;2937;48.562;8.022;2022-07-18T16:51:24;7.50;;;3.90;;
5821;SDS011;2937;48.562;8.022;2022-07-18T16:56:17;7.20;;;3.70;;
5821;SDS011;2937;48.562;8.022;2022-07-18T17:01:11;7.23;;;3.57;;
5821;SDS011;2937;48.562;8.022;2022-07-18T17:06:04;4.50;;;3.27;;
5821;SDS011;2937;48.562;8.022;2022-07-18T17:10:57;4.53;;;3.70;;
5821;SDS011;2937;48.562;8.022;2022-07-18T17:15:49;4.53;;;3.07;;
5821;SDS011;2937;48.562;8.022;2022-07-18T17:20:44;5.90;;;3.40;;
5821;SDS011;2937;48.562;8.022;2022-07-18T17:25:38;8.90;;;3.47;;
5821;SDS011;2937;48.562;8.022;2022-07-18T17:30:31;4.73;;;3.20;;
5821;SDS011;2937;48.562;8.022;2022-07-18T17:35:24;10.30;;;3.40;;
5821;SDS011;2937;48.562;8.022;2022-07-18T17:40:19;5.30;;;3.33;;
5821;SDS011;2937;48.562;8.022;2022-07-18T17:45:12;6.80;;;3.50;;
5821;SDS011;2937;48.562;8.022;2022-07-18T17:50:05;4.70;;;3.47;;
5821;SDS011;2937;48.562;8.022;2022-07-18T17:54:58;5.73;;;2.97;;
5821;SDS011;2937;48.562;8.022;2022-07-18T17:59:52;6.37;;;3.17;;
5821;SDS011;2937;48.562;8.022;2022-07-18T18:04:54;4.13;;;3.40;;
5821;SDS011;2937;48.562;8.022;2022-07-18T18:09:47;5.37;;;3.30;;
5821;SDS011;2937;48.562;8.022;2022-07-18T18:14:39;7.00;;;3.30;;
5821;SDS011;2937;48.562;8.022;2022-07-18T18:19:33;6.80;;;3.40;;
5821;SDS011;2937;48.562;8.022;2022-07-18T18:24:27;7.37;;;5.53;;
5821;SDS011;2937;48.562;8.022;2022-07-18T18:29:20;5.77;;;3.47;;
5821;SDS011;2937;48.562;8.022;2022-07-18T18:34:12;6.43;;;3.50;;
5821;SDS011;2937;48.562;8.022;2022-07-18T18:39:07;3.80;;;3.10;;
5821;SDS011;2937;48.562;8.022;2022-07-18T18:44:00;6.73;;;4.03;;
5821;SDS011;2937;48.562;8.022;2022-07-18T18:48:53;9.23;;;3.73;;
5821;SDS011;2937;48.562;8.022;2022-07-18T18:53:45;5.93;;;4.10;;
5821;SDS011;2937;48.562;8.022;2022-07-18T18:58:39;5.37;;;3.57;;
5821;SDS011;2937;48.562;8.022;2022-07-18T19:03:32;5.10;;;3.40;;
5821;SDS011;2937;48.562;8.022;2022-07-18T19:08:26;7.13;;;3.97;;
5821;SDS011;2937;48.562;8.022;2022-07-18T19:13:18;4.70;;;2.97;;
5821;SDS011;2937;48.562;8.022;2022-07-18T19:18:12;6.00;;;3.60;;
5821;SDS011;2937;48.562;8.022;2022-07-18T19:23:05;7.30;;;3.70;;
5821;SDS011;2937;48.562;8.022;2022-07-18T19:27:57;13.93;;;4.43;;
5821;SDS011;2937;48.562;8.022;2022-07-18T19:32:50;8.03;;;4.23;;
5821;SDS011;2937;48.562;8.022;2022-07-18T19:37:45;7.57;;;3.70;;
5821;SDS011;2937;48.562;8.022;2022-07-18T19:42:37;4.93;;;3.40;;
5821;SDS011;2937;48.562;8.022;2022-07-18T19:47:30;7.50;;;3.37;;
5821;SDS011;2937;48.562;8.022;2022-07-18T19:52:23;6.47;;;3.50;;
5821;SDS011;2937;48.562;8.022;2022-07-18T19:57:17;8.00;;;3.57;;
5821;SDS011;2937;48.562;8.022;2022-07-18T20:02:09;5.80;;;4.00;;
5821;SDS011;2937;48.562;8.022;2022-07-18T20:07:02;10.13;;;4.40;;
5821;SDS011;2937;48.562;8.022;2022-07-18T20:12:00;10.70;;;5.20;;
5821;SDS011;2937;48.562;8.022;2022-07-18T20:16:54;8.10;;;4.40;;
5821;SDS011;2937;48.562;8.022;2022-07-18T20:21:46;9.53;;;4.87;;
5821;SDS011;2937;48.562;8.022;2022-07-18T20:26:39;8.83;;;4.37;;
5821;SDS011;2937;48.562;8.022;2022-07-18T20:31:32;7.63;;;5.17;;
5821;SDS011;2937;48.562;8.022;2022-07-18T20:36:26;8.30;;;4.90;;
5821;SDS011;2937;48.562;8.022;2022-07-18T20:41:19;9.80;;;4.93;;
5821;SDS011;2937;48.562;8.022;2022-07-18T20:46:13;9.17;;;4.80;;
5821;SDS011;2937;48.562;8.022;2022-07-18T20:51:06;8.00;;;4.80;;
5821;SDS011;2937;48.562;8.022;2022-07-18T20:55:59;7.23;;;4.93;;
5821;SDS011;2937;48.562;8.022;2022-07-18T21:00:52;7.57;;;4.87;;
5821;SDS011;2937;48.562;8.022;2022-07-18T21:05:45;8.30;;;4.90;;
5821;SDS011;2937;48.562;8.022;2022-07-18T21:10:37;7.43;;;5.13;;
5821;SDS011;2937;48.562;8.022;2022-07-18T21:15:31;9.87;;;5.00;;
5821;SDS011;2937;48.562;8.022;2022-07-18T21:20:24;8.43;;;4.97;;
5821;SDS011;2937;48.562;8.022;2022-07-18T21:25:18;7.70;;;5.20;;
5821;SDS011;2937;48.562;8.022;2022-07-18T21:30:11;6.40;;;5.00;;
5821;SDS011;2937;48.562;8.022;2022-07-18T21:35:07;8.30;;;5.07;;
5821;SDS011;2937;48.562;8.022;2022-07-18T21:40:07;7.23;;;5.30;;
5821;SDS011;2937;48.562;8.022;2022-07-18T21:45:00;7.53;;;4.70;;
5821;SDS011;2937;48.562;8.022;2022-07-18T21:49:52;8.70;;;5.53;;
5821;SDS011;2937;48.562;8.022;2022-07-18T21:54:47;9.07;;;5.13;;
5821;SDS011;2937;48.562;8.022;2022-07-18T21:59:39;6.30;;;4.83;;
5821;SDS011;2937;48.562;8.022;2022-07-18T22:04:33;6.00;;;4.73;;
5821;SDS011;2937;48.562;8.022;2022-07-18T22:09:25;9.03;;;5.50;;
5821;SDS011;2937;48.562;8.022;2022-07-18T22:14:19;7.07;;;5.23;;
5821;SDS011;2937;48.562;8.022;2022-07-18T22:19:12;7.43;;;5.17;;
5821;SDS011;2937;48.562;8.022;2022-07-18T22:24:05;6.50;;;5.30;;
5821;SDS011;2937;48.562;8.022;2022-07-18T22:28:58;11.20;;;5.03;;
5821;SDS011;2937;48.562;8.022;2022-07-18T22:33:52;9.70;;;5.60;;
5821;SDS011;2937;48.562;8.022;2022-07-18T22:38:45;8.80;;;5.57;;
5821;SDS011;2937;48.562;8.022;2022-07-18T22:43:38;7.43;;;5.10;;
5821;SDS011;2937;48.562;8.022;2022-07-18T22:48:30;7.70;;;5.07;;
5821;SDS011;2937;48.562;8.022;2022-07-18T22:53:24;9.00;;;5.30;;
5821;SDS011;2937;48.562;8.022;2022-07-18T22:58:17;7.63;;;5.00;;
5821;SDS011;2937;48.562;8.022;2022-07-18T23:03:10;8.57;;;4.70;;
5821;SDS011;2937;48.562;8.022;2022-07-18T23:08:03;8.63;;;4.93;;
5821;SDS011;2937;48.562;8.022;2022-07-18T23:12:57;5.73;;;4.70;;
5821;SDS011;2937;48.562;8.022;2022-07-18T23:17:50;7.23;;;5.00;;
5821;SDS011;2937;48.562;8.022;2022-07-18T23:22:43;6.60;;;5.50;;
5821;SDS011;2937;48.562;8.022;2022-07-18T23:27:36;5.50;;;4.80;;
5821;SDS011;2937;48.562;8.022;2022-07-18T23:32:30;8.07;;;5.03;;
5821;SDS011;2937;48.562;8.022;2022-07-18T23:37:23;10.10;;;4.90;;
5821;SDS011;2937;48.562;8.022;2022-07-18T23:42:16;7.17;;;5.10;;
5821;SDS011;2937;48.562;8.022;2022-07-18T23:47:09;6.43;;;4.83;;
5821;SDS011;2937;48.562;8.022;2022-07-18T23:52:03;7.23;;;5.23;;
5821;SDS011;2937;48.562;8.022;2022-07-18T23:56:55;6.23;;;5.30;;
